sensor_id;sensor_type;location;lat;lon;timestamp;P1;durP1;ratioP1;P2;durP2;ratioP2
26756;SDS011;23848;49.798;10.228;2023-02-22T00:01:42;11.48;;;8.35;;
26756;SDS011;23848;49.798;10.228;2023-02-22T00:04:18;11.13;;;8.75;;
26756;SDS011;23848;49.798;10.228;2023-02-22T00:06:47;11.90;;;8.90;;
26756;SDS011;23848;49.798;10.228;2023-02-22T00:09:17;12.07;;;9.52;;
26756;SDS011;23848;49.798;10.228;2023-02-22T00:11:46;14.43;;;9.15;;
26756;SDS011;23848;49.798;10.228;2023-02-22T00:14:14;15.30;;;9.82;;
26756;SDS011;23848;49.798;10.228;2023-02-22T00:16:45;14.63;;;9.40;;
26756;SDS011;23848;49.798;10.228;2023-02-22T00:19:15;15.05;;;10.30;;
26756;SDS011;23848;49.798;10.228;2023-02-22T00:21:44;16.10;;;11.35;;
26756;SDS011;23848;49.798;10.228;2023-02-22T00:24:12;19.90;;;11.88;;
26756;SDS011;23848;49.798;10.228;2023-02-22T00:26:51;16.42;;;10.98;;
26756;SDS011;23848;49.798;10.228;2023-02-22T00:29:22;22.10;;;12.00;;
26756;SDS011;23848;49.798;10.228;2023-02-22T00:31:50;23.20;;;13.02;;
26756;SDS011;23848;49.798;10.228;2023-02-22T00:34:19;36.63;;;20.77;;
26756;SDS011;23848;49.798;10.228;2023-02-22T00:36:49;29.67;;;18.73;;
26756;SDS011;23848;49.798;10.228;2023-02-22T00:39:17;24.63;;;13.48;;
26756;SDS011;23848;49.798;10.228;2023-02-22T00:41:46;24.20;;;14.13;;
26756;SDS011;23848;49.798;10.228;2023-02-22T00:44:16;24.90;;;14.90;;
26756;SDS011;23848;49.798;10.228;2023-02-22T00:46:44;20.40;;;12.07;;
26756;SDS011;23848;49.798;10.228;2023-02-22T00:49:13;23.90;;;13.75;;
26756;SDS011;23848;49.798;10.228;2023-02-22T00:51:41;20.38;;;12.52;;
26756;SDS011;23848;49.798;10.228;2023-02-22T00:54:09;21.35;;;12.95;;
26756;SDS011;23848;49.798;10.228;2023-02-22T00:56:39;22.38;;;14.23;;
26756;SDS011;23848;49.798;10.228;2023-02-22T00:59:07;31.02;;;18.27;;
26756;SDS011;23848;49.798;10.228;2023-02-22T01:01:39;29.83;;;17.63;;
26756;SDS011;23848;49.798;10.228;2023-02-22T01:04:08;41.97;;;24.77;;
26756;SDS011;23848;49.798;10.228;2023-02-22T01:06:36;37.42;;;23.15;;
26756;SDS011;23848;49.798;10.228;2023-02-22T01:09:05;31.27;;;18.05;;
26756;SDS011;23848;49.798;10.228;2023-02-22T01:11:33;28.88;;;16.23;;
26756;SDS011;23848;49.798;10.228;2023-02-22T01:14:02;27.67;;;14.15;;
26756;SDS011;23848;49.798;10.228;2023-02-22T01:16:34;25.02;;;13.73;;
26756;SDS011;23848;49.798;10.228;2023-02-22T01:19:04;23.48;;;13.25;;
26756;SDS011;23848;49.798;10.228;2023-02-22T01:21:33;21.85;;;11.38;;
26756;SDS011;23848;49.798;10.228;2023-02-22T01:24:01;20.33;;;12.93;;
26756;SDS011;23848;49.798;10.228;2023-02-22T01:26:29;19.25;;;12.73;;
26756;SDS011;23848;49.798;10.228;2023-02-22T01:28:58;21.08;;;13.05;;
26756;SDS011;23848;49.798;10.228;2023-02-22T01:31:26;17.65;;;10.93;;
26756;SDS011;23848;49.798;10.228;2023-02-22T01:33:54;17.80;;;11.55;;
26756;SDS011;23848;49.798;10.228;2023-02-22T01:36:24;16.50;;;10.50;;
26756;SDS011;23848;49.798;10.228;2023-02-22T01:38:53;17.05;;;12.38;;
26756;SDS011;23848;49.798;10.228;2023-02-22T01:41:21;22.73;;;13.35;;
26756;SDS011;23848;49.798;10.228;2023-02-22T01:43:49;22.00;;;12.45;;
26756;SDS011;23848;49.798;10.228;2023-02-22T01:46:19;21.98;;;11.38;;
26756;SDS011;23848;49.798;10.228;2023-02-22T01:48:48;24.48;;;13.80;;
26756;SDS011;23848;49.798;10.228;2023-02-22T01:51:18;21.30;;;12.02;;
26756;SDS011;23848;49.798;10.228;2023-02-22T01:53:50;25.33;;;13.98;;
26756;SDS011;23848;49.798;10.228;2023-02-22T01:56:19;23.70;;;13.48;;
26756;SDS011;23848;49.798;10.228;2023-02-22T01:58:49;25.15;;;14.50;;
26756;SDS011;23848;49.798;10.228;2023-02-22T02:01:19;23.60;;;12.73;;
26756;SDS011;23848;49.798;10.228;2023-02-22T02:03:49;20.02;;;10.80;;
26756;SDS011;23848;49.798;10.228;2023-02-22T02:06:19;21.92;;;11.45;;
26756;SDS011;23848;49.798;10.228;2023-02-22T02:08:51;18.10;;;10.82;;
26756;SDS011;23848;49.798;10.228;2023-02-22T02:13:51;18.17;;;10.63;;
26756;SDS011;23848;49.798;10.228;2023-02-22T02:16:20;15.88;;;10.18;;
26756;SDS011;23848;49.798;10.228;2023-02-22T02:18:49;15.38;;;8.75;;
26756;SDS011;23848;49.798;10.228;2023-02-22T02:27:09;13.70;;;7.25;;
26756;SDS011;23848;49.798;10.228;2023-02-22T02:32:30;12.30;;;8.50;;
26756;SDS011;23848;49.798;10.228;2023-02-22T02:35:02;13.30;;;9.10;;
26756;SDS011;23848;49.798;10.228;2023-02-22T02:37:32;9.73;;;6.68;;
26756;SDS011;23848;49.798;10.228;2023-02-22T02:40:05;13.20;;;7.95;;
26756;SDS011;23848;49.798;10.228;2023-02-22T02:42:39;12.52;;;9.35;;
26756;SDS011;23848;49.798;10.228;2023-02-22T02:45:10;14.10;;;9.30;;
26756;SDS011;23848;49.798;10.228;2023-02-22T02:47:43;13.15;;;9.05;;
26756;SDS011;23848;49.798;10.228;2023-02-22T02:50:13;17.02;;;10.27;;
26756;SDS011;23848;49.798;10.228;2023-02-22T02:52:43;23.10;;;12.25;;
26756;SDS011;23848;49.798;10.228;2023-02-22T02:55:12;21.02;;;11.98;;
26756;SDS011;23848;49.798;10.228;2023-02-22T02:57:43;21.50;;;10.95;;
26756;SDS011;23848;49.798;10.228;2023-02-22T03:00:12;16.58;;;10.85;;
26756;SDS011;23848;49.798;10.228;2023-02-22T03:02:53;23.13;;;12.13;;
26756;SDS011;23848;49.798;10.228;2023-02-22T03:05:31;21.02;;;12.00;;
26756;SDS011;23848;49.798;10.228;2023-02-22T03:08:03;17.58;;;11.73;;
26756;SDS011;23848;49.798;10.228;2023-02-22T03:10:42;21.67;;;12.02;;
26756;SDS011;23848;49.798;10.228;2023-02-22T03:13:14;19.95;;;12.18;;
26756;SDS011;23848;49.798;10.228;2023-02-22T03:15:46;21.67;;;12.30;;
26756;SDS011;23848;49.798;10.228;2023-02-22T03:18:20;18.73;;;12.57;;
26756;SDS011;23848;49.798;10.228;2023-02-22T03:20:56;15.52;;;10.13;;
26756;SDS011;23848;49.798;10.228;2023-02-22T03:23:28;13.30;;;9.45;;
26756;SDS011;23848;49.798;10.228;2023-02-22T03:26:00;12.57;;;9.02;;
26756;SDS011;23848;49.798;10.228;2023-02-22T03:28:30;14.50;;;10.02;;
26756;SDS011;23848;49.798;10.228;2023-02-22T03:31:00;12.88;;;8.98;;
26756;SDS011;23848;49.798;10.228;2023-02-22T03:33:31;11.82;;;9.30;;
26756;SDS011;23848;49.798;10.228;2023-02-22T03:36:02;13.63;;;9.80;;
26756;SDS011;23848;49.798;10.228;2023-02-22T03:38:32;14.88;;;10.35;;
26756;SDS011;23848;49.798;10.228;2023-02-22T03:41:03;14.60;;;10.02;;
26756;SDS011;23848;49.798;10.228;2023-02-22T03:43:33;14.70;;;9.88;;
26756;SDS011;23848;49.798;10.228;2023-02-22T03:46:03;13.25;;;9.75;;
26756;SDS011;23848;49.798;10.228;2023-02-22T03:48:37;13.77;;;9.65;;
26756;SDS011;23848;49.798;10.228;2023-02-22T03:51:06;15.52;;;10.30;;
26756;SDS011;23848;49.798;10.228;2023-02-22T03:53:35;14.90;;;9.85;;
26756;SDS011;23848;49.798;10.228;2023-02-22T03:56:04;12.73;;;8.80;;
26756;SDS011;23848;49.798;10.228;2023-02-22T03:58:35;14.27;;;8.95;;
26756;SDS011;23848;49.798;10.228;2023-02-22T04:01:04;12.85;;;9.32;;
26756;SDS011;23848;49.798;10.228;2023-02-22T04:03:33;12.95;;;9.27;;
26756;SDS011;23848;49.798;10.228;2023-02-22T04:06:03;13.30;;;9.93;;
26756;SDS011;23848;49.798;10.228;2023-02-22T04:08:32;11.10;;;9.20;;
26756;SDS011;23848;49.798;10.228;2023-02-22T04:11:01;11.80;;;9.55;;
26756;SDS011;23848;49.798;10.228;2023-02-22T04:13:30;11.65;;;9.43;;
26756;SDS011;23848;49.798;10.228;2023-02-22T04:15:58;16.60;;;10.30;;
26756;SDS011;23848;49.798;10.228;2023-02-22T04:18:26;13.52;;;10.23;;
26756;SDS011;23848;49.798;10.228;2023-02-22T04:20:55;13.57;;;9.82;;
26756;SDS011;23848;49.798;10.228;2023-02-22T04:23:24;14.75;;;9.82;;
26756;SDS011;23848;49.798;10.228;2023-02-22T04:25:53;12.13;;;9.05;;
26756;SDS011;23848;49.798;10.228;2023-02-22T04:28:21;13.48;;;10.23;;
26756;SDS011;23848;49.798;10.228;2023-02-22T04:30:49;12.95;;;9.50;;
26756;SDS011;23848;49.798;10.228;2023-02-22T04:33:18;14.65;;;10.15;;
26756;SDS011;23848;49.798;10.228;2023-02-22T04:35:46;13.70;;;10.05;;
26756;SDS011;23848;49.798;10.228;2023-02-22T04:38:14;13.38;;;10.55;;
26756;SDS011;23848;49.798;10.228;2023-02-22T04:40:44;13.90;;;10.32;;
26756;SDS011;23848;49.798;10.228;2023-02-22T04:43:12;13.88;;;10.32;;
26756;SDS011;23848;49.798;10.228;2023-02-22T04:45:41;11.57;;;9.15;;
26756;SDS011;23848;49.798;10.228;2023-02-22T04:48:09;14.48;;;9.07;;
26756;SDS011;23848;49.798;10.228;2023-02-22T04:50:38;13.30;;;9.10;;
26756;SDS011;23848;49.798;10.228;2023-02-22T04:53:06;13.18;;;8.82;;
26756;SDS011;23848;49.798;10.228;2023-02-22T04:55:35;13.10;;;10.40;;
26756;SDS011;23848;49.798;10.228;2023-02-22T04:58:05;14.30;;;10.05;;
26756;SDS011;23848;49.798;10.228;2023-02-22T05:00:34;12.65;;;10.38;;
26756;SDS011;23848;49.798;10.228;2023-02-22T05:03:03;11.43;;;9.98;;
26756;SDS011;23848;49.798;10.228;2023-02-22T05:05:31;11.85;;;9.55;;
26756;SDS011;23848;49.798;10.228;2023-02-22T05:07:59;13.10;;;10.02;;
26756;SDS011;23848;49.798;10.228;2023-02-22T05:10:28;12.00;;;10.18;;
26756;SDS011;23848;49.798;10.228;2023-02-22T05:12:56;15.63;;;10.43;;
26756;SDS011;23848;49.798;10.228;2023-02-22T05:15:25;16.33;;;10.40;;
26756;SDS011;23848;49.798;10.228;2023-02-22T05:17:54;12.35;;;10.50;;
26756;SDS011;23848;49.798;10.228;2023-02-22T05:20:23;12.27;;;9.85;;
26756;SDS011;23848;49.798;10.228;2023-02-22T05:22:54;14.63;;;10.73;;
26756;SDS011;23848;49.798;10.228;2023-02-22T05:25:23;12.82;;;10.50;;
26756;SDS011;23848;49.798;10.228;2023-02-22T05:27:52;14.90;;;10.32;;
26756;SDS011;23848;49.798;10.228;2023-02-22T05:30:21;12.77;;;9.45;;
26756;SDS011;23848;49.798;10.228;2023-02-22T05:32:52;11.85;;;9.57;;
26756;SDS011;23848;49.798;10.228;2023-02-22T05:35:22;15.05;;;10.82;;
26756;SDS011;23848;49.798;10.228;2023-02-22T05:37:51;12.15;;;9.48;;
26756;SDS011;23848;49.798;10.228;2023-02-22T05:40:21;15.35;;;8.98;;
26756;SDS011;23848;49.798;10.228;2023-02-22T05:42:50;14.10;;;10.98;;
26756;SDS011;23848;49.798;10.228;2023-02-22T05:45:20;12.98;;;10.00;;
26756;SDS011;23848;49.798;10.228;2023-02-22T05:47:49;12.10;;;8.88;;
26756;SDS011;23848;49.798;10.228;2023-02-22T05:50:19;13.93;;;9.30;;
26756;SDS011;23848;49.798;10.228;2023-02-22T05:52:47;12.85;;;9.25;;
26756;SDS011;23848;49.798;10.228;2023-02-22T05:55:16;12.85;;;8.77;;
26756;SDS011;23848;49.798;10.228;2023-02-22T05:57:45;14.02;;;9.60;;
26756;SDS011;23848;49.798;10.228;2023-02-22T06:00:15;15.93;;;11.48;;
26756;SDS011;23848;49.798;10.228;2023-02-22T06:02:43;13.38;;;11.07;;
26756;SDS011;23848;49.798;10.228;2023-02-22T06:05:11;13.63;;;10.57;;
26756;SDS011;23848;49.798;10.228;2023-02-22T06:07:42;17.73;;;11.70;;
26756;SDS011;23848;49.798;10.228;2023-02-22T06:10:11;15.18;;;10.73;;
26756;SDS011;23848;49.798;10.228;2023-02-22T06:12:39;15.05;;;10.13;;
26756;SDS011;23848;49.798;10.228;2023-02-22T06:15:07;13.43;;;9.65;;
26756;SDS011;23848;49.798;10.228;2023-02-22T06:17:36;13.80;;;9.30;;
26756;SDS011;23848;49.798;10.228;2023-02-22T06:20:07;14.48;;;9.55;;
26756;SDS011;23848;49.798;10.228;2023-02-22T06:22:36;14.45;;;9.93;;
26756;SDS011;23848;49.798;10.228;2023-02-22T06:25:08;14.88;;;10.63;;
26756;SDS011;23848;49.798;10.228;2023-02-22T06:27:38;13.52;;;9.07;;
26756;SDS011;23848;49.798;10.228;2023-02-22T06:30:08;11.57;;;9.85;;
26756;SDS011;23848;49.798;10.228;2023-02-22T06:32:38;17.17;;;9.55;;
26756;SDS011;23848;49.798;10.228;2023-02-22T06:35:07;15.68;;;9.82;;
26756;SDS011;23848;49.798;10.228;2023-02-22T06:37:35;15.55;;;10.70;;
26756;SDS011;23848;49.798;10.228;2023-02-22T06:40:04;13.68;;;10.93;;
26756;SDS011;23848;49.798;10.228;2023-02-22T06:42:34;12.73;;;10.27;;
26756;SDS011;23848;49.798;10.228;2023-02-22T06:45:02;16.65;;;11.00;;
26756;SDS011;23848;49.798;10.228;2023-02-22T06:47:31;15.80;;;9.93;;
26756;SDS011;23848;49.798;10.228;2023-02-22T06:50:01;16.77;;;11.40;;
26756;SDS011;23848;49.798;10.228;2023-02-22T06:52:30;20.58;;;11.68;;
26756;SDS011;23848;49.798;10.228;2023-02-22T06:54:58;18.95;;;11.90;;
26756;SDS011;23848;49.798;10.228;2023-02-22T06:57:26;21.13;;;12.10;;
26756;SDS011;23848;49.798;10.228;2023-02-22T06:59:56;17.17;;;12.45;;
26756;SDS011;23848;49.798;10.228;2023-02-22T07:02:24;20.75;;;13.45;;
26756;SDS011;23848;49.798;10.228;2023-02-22T07:04:53;22.95;;;13.48;;
26756;SDS011;23848;49.798;10.228;2023-02-22T07:07:21;29.02;;;20.48;;
26756;SDS011;23848;49.798;10.228;2023-02-22T07:09:50;18.30;;;15.10;;
26756;SDS011;23848;49.798;10.228;2023-02-22T07:12:18;16.02;;;12.13;;
26756;SDS011;23848;49.798;10.228;2023-02-22T07:14:47;15.82;;;12.50;;
26756;SDS011;23848;49.798;10.228;2023-02-22T07:17:16;56.97;;;40.47;;
26756;SDS011;23848;49.798;10.228;2023-02-22T07:19:47;19.58;;;13.38;;
26756;SDS011;23848;49.798;10.228;2023-02-22T07:22:16;16.58;;;13.23;;
26756;SDS011;23848;49.798;10.228;2023-02-22T07:24:45;12.93;;;10.43;;
26756;SDS011;23848;49.798;10.228;2023-02-22T07:27:14;12.07;;;9.93;;
26756;SDS011;23848;49.798;10.228;2023-02-22T07:29:42;20.75;;;14.70;;
26756;SDS011;23848;49.798;10.228;2023-02-22T07:32:11;14.68;;;11.52;;
26756;SDS011;23848;49.798;10.228;2023-02-22T07:34:41;13.52;;;9.93;;
26756;SDS011;23848;49.798;10.228;2023-02-22T07:37:10;19.35;;;13.70;;
26756;SDS011;23848;49.798;10.228;2023-02-22T07:39:42;11.82;;;9.88;;
26756;SDS011;23848;49.798;10.228;2023-02-22T07:42:11;17.65;;;12.50;;
26756;SDS011;23848;49.798;10.228;2023-02-22T07:44:39;11.27;;;8.43;;
26756;SDS011;23848;49.798;10.228;2023-02-22T07:47:07;12.63;;;9.57;;
26756;SDS011;23848;49.798;10.228;2023-02-22T07:49:38;17.83;;;14.60;;
26756;SDS011;23848;49.798;10.228;2023-02-22T07:52:07;19.15;;;14.95;;
26756;SDS011;23848;49.798;10.228;2023-02-22T07:54:38;15.55;;;11.57;;
26756;SDS011;23848;49.798;10.228;2023-02-22T07:57:06;14.15;;;11.55;;
26756;SDS011;23848;49.798;10.228;2023-02-22T07:59:34;12.02;;;10.38;;
26756;SDS011;23848;49.798;10.228;2023-02-22T08:02:02;26.92;;;19.38;;
26756;SDS011;23848;49.798;10.228;2023-02-22T08:04:31;17.02;;;12.02;;
26756;SDS011;23848;49.798;10.228;2023-02-22T08:06:59;12.98;;;10.55;;
26756;SDS011;23848;49.798;10.228;2023-02-22T08:09:30;14.68;;;11.77;;
26756;SDS011;23848;49.798;10.228;2023-02-22T08:11:58;14.38;;;10.40;;
26756;SDS011;23848;49.798;10.228;2023-02-22T08:14:27;13.23;;;9.80;;
26756;SDS011;23848;49.798;10.228;2023-02-22T08:16:55;12.45;;;9.70;;
26756;SDS011;23848;49.798;10.228;2023-02-22T08:19:23;12.27;;;9.95;;
26756;SDS011;23848;49.798;10.228;2023-02-22T08:21:52;15.35;;;11.32;;
26756;SDS011;23848;49.798;10.228;2023-02-22T08:24:20;19.63;;;14.63;;
26756;SDS011;23848;49.798;10.228;2023-02-22T08:26:50;15.57;;;12.52;;
26756;SDS011;23848;49.798;10.228;2023-02-22T08:29:18;18.17;;;14.88;;
26756;SDS011;23848;49.798;10.228;2023-02-22T08:31:49;13.68;;;10.60;;
26756;SDS011;23848;49.798;10.228;2023-02-22T08:34:19;13.13;;;10.55;;
26756;SDS011;23848;49.798;10.228;2023-02-22T08:36:47;15.05;;;9.48;;
26756;SDS011;23848;49.798;10.228;2023-02-22T08:39:18;15.50;;;12.13;;
26756;SDS011;23848;49.798;10.228;2023-02-22T08:41:47;14.07;;;10.75;;
26756;SDS011;23848;49.798;10.228;2023-02-22T08:44:17;14.40;;;10.10;;
26756;SDS011;23848;49.798;10.228;2023-02-22T08:46:46;12.25;;;10.20;;
26756;SDS011;23848;49.798;10.228;2023-02-22T08:49:14;14.20;;;10.77;;
26756;SDS011;23848;49.798;10.228;2023-02-22T08:51:42;15.73;;;12.05;;
26756;SDS011;23848;49.798;10.228;2023-02-22T08:54:11;14.95;;;11.77;;
26756;SDS011;23848;49.798;10.228;2023-02-22T08:56:40;15.65;;;12.25;;
26756;SDS011;23848;49.798;10.228;2023-02-22T08:59:09;12.93;;;10.75;;
26756;SDS011;23848;49.798;10.228;2023-02-22T09:01:38;13.57;;;9.95;;
26756;SDS011;23848;49.798;10.228;2023-02-22T09:04:07;13.48;;;10.48;;
26756;SDS011;23848;49.798;10.228;2023-02-22T09:06:35;12.65;;;10.23;;
26756;SDS011;23848;49.798;10.228;2023-02-22T09:09:04;11.30;;;9.20;;
26756;SDS011;23848;49.798;10.228;2023-02-22T09:11:32;11.77;;;9.40;;
26756;SDS011;23848;49.798;10.228;2023-02-22T09:14:01;13.93;;;10.35;;
26756;SDS011;23848;49.798;10.228;2023-02-22T09:16:29;11.85;;;9.10;;
26756;SDS011;23848;49.798;10.228;2023-02-22T09:19:00;11.95;;;9.18;;
26756;SDS011;23848;49.798;10.228;2023-02-22T09:21:28;12.43;;;9.85;;
26756;SDS011;23848;49.798;10.228;2023-02-22T09:23:56;12.63;;;9.25;;
26756;SDS011;23848;49.798;10.228;2023-02-22T09:26:35;10.65;;;9.15;;
26756;SDS011;23848;49.798;10.228;2023-02-22T09:29:05;11.65;;;9.57;;
26756;SDS011;23848;49.798;10.228;2023-02-22T09:31:36;13.43;;;10.90;;
26756;SDS011;23848;49.798;10.228;2023-02-22T09:34:07;13.02;;;9.57;;
26756;SDS011;23848;49.798;10.228;2023-02-22T09:36:39;11.63;;;9.25;;
26756;SDS011;23848;49.798;10.228;2023-02-22T09:39:09;11.70;;;9.25;;
26756;SDS011;23848;49.798;10.228;2023-02-22T09:41:38;12.38;;;10.15;;
26756;SDS011;23848;49.798;10.228;2023-02-22T09:44:15;11.35;;;9.07;;
26756;SDS011;23848;49.798;10.228;2023-02-22T09:46:49;12.05;;;10.05;;
26756;SDS011;23848;49.798;10.228;2023-02-22T09:49:23;14.00;;;10.70;;
26756;SDS011;23848;49.798;10.228;2023-02-22T09:52:02;15.20;;;10.57;;
26756;SDS011;23848;49.798;10.228;2023-02-22T09:54:34;14.50;;;10.75;;
26756;SDS011;23848;49.798;10.228;2023-02-22T09:57:04;13.52;;;10.35;;
26756;SDS011;23848;49.798;10.228;2023-02-22T09:59:38;13.40;;;10.30;;
26756;SDS011;23848;49.798;10.228;2023-02-22T10:02:15;21.60;;;14.57;;
26756;SDS011;23848;49.798;10.228;2023-02-22T10:04:56;14.07;;;11.05;;
26756;SDS011;23848;49.798;10.228;2023-02-22T10:07:31;19.27;;;12.40;;
26756;SDS011;23848;49.798;10.228;2023-02-22T10:10:02;14.98;;;11.38;;
26756;SDS011;23848;49.798;10.228;2023-02-22T10:12:34;14.55;;;10.75;;
26756;SDS011;23848;49.798;10.228;2023-02-22T10:15:11;17.08;;;11.43;;
26756;SDS011;23848;49.798;10.228;2023-02-22T10:17:43;18.38;;;13.02;;
26756;SDS011;23848;49.798;10.228;2023-02-22T10:20:22;16.08;;;11.25;;
26756;SDS011;23848;49.798;10.228;2023-02-22T10:23:01;18.17;;;10.88;;
26756;SDS011;23848;49.798;10.228;2023-02-22T10:25:33;13.10;;;10.63;;
26756;SDS011;23848;49.798;10.228;2023-02-22T10:28:05;12.45;;;10.00;;
26756;SDS011;23848;49.798;10.228;2023-02-22T10:30:39;12.57;;;10.05;;
26756;SDS011;23848;49.798;10.228;2023-02-22T10:33:09;11.98;;;9.07;;
26756;SDS011;23848;49.798;10.228;2023-02-22T10:35:41;14.93;;;9.98;;
26756;SDS011;23848;49.798;10.228;2023-02-22T10:38:13;14.15;;;10.32;;
26756;SDS011;23848;49.798;10.228;2023-02-22T10:40:44;11.43;;;9.32;;
26756;SDS011;23848;49.798;10.228;2023-02-22T10:43:16;14.02;;;9.40;;
26756;SDS011;23848;49.798;10.228;2023-02-22T10:45:45;11.35;;;9.40;;
26756;SDS011;23848;49.798;10.228;2023-02-22T10:48:14;14.27;;;9.75;;
26756;SDS011;23848;49.798;10.228;2023-02-22T10:50:46;12.93;;;10.07;;
26756;SDS011;23848;49.798;10.228;2023-02-22T10:56:08;14.15;;;10.48;;
26756;SDS011;23848;49.798;10.228;2023-02-22T10:58:45;12.75;;;9.93;;
26756;SDS011;23848;49.798;10.228;2023-02-22T11:01:18;13.48;;;10.45;;
26756;SDS011;23848;49.798;10.228;2023-02-22T11:03:54;12.98;;;10.20;;
26756;SDS011;23848;49.798;10.228;2023-02-22T11:06:25;14.38;;;10.30;;
26756;SDS011;23848;49.798;10.228;2023-02-22T11:09:05;13.55;;;10.98;;
26756;SDS011;23848;49.798;10.228;2023-02-22T11:11:35;14.80;;;11.20;;
26756;SDS011;23848;49.798;10.228;2023-02-22T11:14:05;14.40;;;10.32;;
26756;SDS011;23848;49.798;10.228;2023-02-22T11:16:36;15.30;;;10.88;;
26756;SDS011;23848;49.798;10.228;2023-02-22T11:19:10;13.70;;;10.13;;
26756;SDS011;23848;49.798;10.228;2023-02-22T11:21:40;14.05;;;10.65;;
26756;SDS011;23848;49.798;10.228;2023-02-22T11:24:09;13.90;;;11.15;;
26756;SDS011;23848;49.798;10.228;2023-02-22T11:26:39;11.52;;;9.57;;
26756;SDS011;23848;49.798;10.228;2023-02-22T11:29:09;12.57;;;10.38;;
26756;SDS011;23848;49.798;10.228;2023-02-22T11:31:41;12.30;;;10.10;;
26756;SDS011;23848;49.798;10.228;2023-02-22T11:34:24;15.13;;;8.77;;
26756;SDS011;23848;49.798;10.228;2023-02-22T11:36:53;11.70;;;9.50;;
26756;SDS011;23848;49.798;10.228;2023-02-22T11:39:23;12.35;;;9.88;;
26756;SDS011;23848;49.798;10.228;2023-02-22T11:41:52;12.55;;;9.27;;
26756;SDS011;23848;49.798;10.228;2023-02-22T11:44:23;11.30;;;8.07;;
26756;SDS011;23848;49.798;10.228;2023-02-22T11:46:52;11.57;;;9.25;;
26756;SDS011;23848;49.798;10.228;2023-02-22T11:49:22;12.18;;;8.85;;
26756;SDS011;23848;49.798;10.228;2023-02-22T11:51:55;11.80;;;8.63;;
26756;SDS011;23848;49.798;10.228;2023-02-22T11:54:32;12.23;;;8.93;;
26756;SDS011;23848;49.798;10.228;2023-02-22T11:57:14;11.73;;;8.82;;
26756;SDS011;23848;49.798;10.228;2023-02-22T11:59:45;13.32;;;9.60;;
26756;SDS011;23848;49.798;10.228;2023-02-22T12:05:13;12.55;;;10.07;;
26756;SDS011;23848;49.798;10.228;2023-02-22T12:07:49;11.77;;;7.95;;
26756;SDS011;23848;49.798;10.228;2023-02-22T12:10:25;11.80;;;8.15;;
26756;SDS011;23848;49.798;10.228;2023-02-22T12:13:01;12.52;;;8.40;;
26756;SDS011;23848;49.798;10.228;2023-02-22T12:15:33;9.60;;;7.25;;
26756;SDS011;23848;49.798;10.228;2023-02-22T12:18:06;12.13;;;7.95;;
26756;SDS011;23848;49.798;10.228;2023-02-22T12:20:37;10.05;;;7.22;;
26756;SDS011;23848;49.798;10.228;2023-02-22T12:23:13;10.20;;;6.78;;
26756;SDS011;23848;49.798;10.228;2023-02-22T12:25:47;9.60;;;7.30;;
26756;SDS011;23848;49.798;10.228;2023-02-22T12:28:24;10.15;;;7.30;;
26756;SDS011;23848;49.798;10.228;2023-02-22T12:30:55;9.77;;;6.90;;
26756;SDS011;23848;49.798;10.228;2023-02-22T12:33:28;11.85;;;8.68;;
26756;SDS011;23848;49.798;10.228;2023-02-22T12:35:58;10.05;;;7.60;;
26756;SDS011;23848;49.798;10.228;2023-02-22T12:38:32;10.75;;;7.30;;
26756;SDS011;23848;49.798;10.228;2023-02-22T12:41:04;10.07;;;7.30;;
26756;SDS011;23848;49.798;10.228;2023-02-22T12:43:35;14.48;;;7.10;;
26756;SDS011;23848;49.798;10.228;2023-02-22T12:46:08;11.15;;;6.75;;
26756;SDS011;23848;49.798;10.228;2023-02-22T12:48:40;9.90;;;6.97;;
26756;SDS011;23848;49.798;10.228;2023-02-22T12:51:14;9.88;;;6.95;;
26756;SDS011;23848;49.798;10.228;2023-02-22T12:53:51;10.40;;;6.85;;
26756;SDS011;23848;49.798;10.228;2023-02-22T12:56:21;9.02;;;6.85;;
26756;SDS011;23848;49.798;10.228;2023-02-22T12:58:52;8.75;;;6.20;;
26756;SDS011;23848;49.798;10.228;2023-02-22T13:01:23;9.52;;;7.03;;
26756;SDS011;23848;49.798;10.228;2023-02-22T13:03:55;10.07;;;6.65;;
26756;SDS011;23848;49.798;10.228;2023-02-22T13:06:35;10.48;;;6.35;;
26756;SDS011;23848;49.798;10.228;2023-02-22T13:09:20;9.20;;;6.05;;
26756;SDS011;23848;49.798;10.228;2023-02-22T13:11:54;9.52;;;6.10;;
26756;SDS011;23848;49.798;10.228;2023-02-22T13:14:30;9.65;;;6.70;;
26756;SDS011;23848;49.798;10.228;2023-02-22T13:17:03;8.23;;;6.15;;
26756;SDS011;23848;49.798;10.228;2023-02-22T13:19:34;8.43;;;6.38;;
26756;SDS011;23848;49.798;10.228;2023-02-22T13:22:08;9.52;;;6.22;;
26756;SDS011;23848;49.798;10.228;2023-02-22T13:24:44;9.38;;;6.22;;
26756;SDS011;23848;49.798;10.228;2023-02-22T13:27:16;8.70;;;6.32;;
26756;SDS011;23848;49.798;10.228;2023-02-22T13:29:47;10.27;;;6.65;;
26756;SDS011;23848;49.798;10.228;2023-02-22T13:32:21;9.40;;;6.57;;
26756;SDS011;23848;49.798;10.228;2023-02-22T13:34:59;9.05;;;6.40;;
26756;SDS011;23848;49.798;10.228;2023-02-22T13:37:34;7.90;;;5.75;;
26756;SDS011;23848;49.798;10.228;2023-02-22T13:40:17;11.20;;;6.78;;
26756;SDS011;23848;49.798;10.228;2023-02-22T13:42:52;9.23;;;6.53;;
26756;SDS011;23848;49.798;10.228;2023-02-22T13:45:32;9.88;;;6.47;;
26756;SDS011;23848;49.798;10.228;2023-02-22T13:48:12;8.40;;;5.82;;
26756;SDS011;23848;49.798;10.228;2023-02-22T13:53:36;9.27;;;5.97;;
26756;SDS011;23848;49.798;10.228;2023-02-22T13:56:10;9.88;;;5.93;;
26756;SDS011;23848;49.798;10.228;2023-02-22T13:58:47;8.65;;;5.45;;
26756;SDS011;23848;49.798;10.228;2023-02-22T14:04:31;9.48;;;5.70;;
26756;SDS011;23848;49.798;10.228;2023-02-22T14:07:01;11.88;;;6.00;;
26756;SDS011;23848;49.798;10.228;2023-02-22T14:09:43;10.20;;;6.15;;
26756;SDS011;23848;49.798;10.228;2023-02-22T14:15:13;8.52;;;5.38;;
26756;SDS011;23848;49.798;10.228;2023-02-22T14:17:57;9.27;;;5.55;;
26756;SDS011;23848;49.798;10.228;2023-02-22T14:20:27;9.25;;;6.05;;
26756;SDS011;23848;49.798;10.228;2023-02-22T14:22:57;11.13;;;5.93;;
26756;SDS011;23848;49.798;10.228;2023-02-22T14:25:37;10.27;;;5.85;;
26756;SDS011;23848;49.798;10.228;2023-02-22T14:28:06;15.80;;;11.52;;
26756;SDS011;23848;49.798;10.228;2023-02-22T14:30:37;8.60;;;6.07;;
26756;SDS011;23848;49.798;10.228;2023-02-22T14:35:55;7.53;;;4.95;;
26756;SDS011;23848;49.798;10.228;2023-02-22T14:38:23;7.63;;;5.05;;
26756;SDS011;23848;49.798;10.228;2023-02-22T14:40:54;11.27;;;6.93;;
26756;SDS011;23848;49.798;10.228;2023-02-22T14:43:23;8.93;;;4.60;;
26756;SDS011;23848;49.798;10.228;2023-02-22T14:45:55;9.10;;;4.95;;
26756;SDS011;23848;49.798;10.228;2023-02-22T14:48:26;9.47;;;5.20;;
26756;SDS011;23848;49.798;10.228;2023-02-22T14:50:59;9.15;;;5.25;;
26756;SDS011;23848;49.798;10.228;2023-02-22T14:53:45;8.27;;;5.43;;
26756;SDS011;23848;49.798;10.228;2023-02-22T14:56:16;7.18;;;4.75;;
26756;SDS011;23848;49.798;10.228;2023-02-22T14:58:48;10.23;;;4.70;;
26756;SDS011;23848;49.798;10.228;2023-02-22T15:01:25;8.30;;;5.10;;
26756;SDS011;23848;49.798;10.228;2023-02-22T15:04:18;7.30;;;4.85;;
26756;SDS011;23848;49.798;10.228;2023-02-22T15:06:47;8.30;;;5.10;;